Tiempo atmosférico en la estación meteorológica de Cazalla De La Sierra, Sevilla (550 m.)



Fecha
DESCASC
Temp. máxima en grados centígrados (hora)
DESCASC
Temp. mínima en grados centígrados (hora)
DESCASC
Temp. media en grados centígrados
DESCASC
Racha de viento máxima en m/sg (hora)
DESCASC
Velocidad máxima media en intervalos de 10 minutos(hora)
DESCASC
Precipitaciones diarias en mm
DESCASC
Precipitaciones de 00:00 a 06:00 en mm
DESCASC
Precipitaciones de 06:00 a 12:00 en mm
DESCASC
Precipitaciones de 12:00 a 18:00 en mm
DESCASC
Precipitaciones de 18:00 a 24:00 en mm
DESCASC
22-01-2020 9.1 (15:00) 4.8 (09:10) 7 7.22 (08:20) 3.61 (09:50) 17.7 4.5 10.4 0.1 2.7
21-01-2020 8.6 (16:10) 4.5 (07:30) 6.6 13.06 (12:00) 7.22 (04:50) 0 0 0 0 0
20-01-2020 8.5 (16:50) 3.5 (07:20) 6 14.17 (01:00) 7.78 (03:00) 0 0 0 0 0
19-01-2020 12.6 (15:20) 5.6 (00:00) 9.1 16.39 (20:20) 7.5 (20:20) 0 0 0 0 0
18-01-2020 11.9 (18:10) 5.1 (00:00) 8.5 9.44 (23:40) 5.28 (23:50) 6.5 0 4.5 1.9 0.1
17-01-2020 16.9 (15:10) 5.5 (00:00) 11.2 6.11 (03:40) 3.33 (03:50) 0.2 0.2 0 0 0
16-01-2020 15.9 (15:10) 6 (00:00) 10.9 6.39 (14:40) 3.06 (16:40) 0 0 0 0 0
15-01-2020 12.3 (16:20) 2.3 (00:00) 7.3 5 (11:40) 2.22 (09:50) 0 0 0 0 0
14-01-2020 12.3 (14:00) -0.1 (00:00) 6.1 5.28 (15:20) 2.5 (15:20) 0.1 0 0.1 0 0
13-01-2020 13.3 (15:50) -1.3 (-00:0) 6 6.11 (13:30) 2.78 (13:30) 0 0 0 0 0
12-01-2020 16 (16:30) -0.6 (08:30) 7.7 3.89 (14:10) 2.5 (14:20) 0 0 0 0 0
11-01-2020 15.8 (15:30) 1.5 (00:00) 8.7 6.67 (10:50) 4.17 (10:50) 0 0 0 0 0
10-01-2020 12.7 (15:40) 2.9 (00:00) 7.8 7.5 (07:40) 3.89 (07:10) 0 0 0 0 0
09-01-2020 13.9 (16:10) -0.2 (00:00) 6.8 8.33 (11:00) 4.17 (11:00) 0 0 0 0 0
08-01-2020 20.4 (14:10) 1 (00:00) 10.7 3.61 (14:50) 2.22 (01:00) 0 0 0 0 0
07-01-2020 18.9 (15:40) 1 (00:00) 9.9 4.72 (12:00) 3.33 (11:50) 0.1 0.1 0 0 0
06-01-2020 17.2 (15:40) 0.3 (00:00) 8.8 3.33 (17:30) 1.67 (23:50) 0.1 0.1 0 0 0
05-01-2020 15.2 (16:30) 1.5 (00:00) 8.3 4.72 (13:50) 2.78 (13:40) 0 0 0 0 0
04-01-2020 12.6 (16:50) 0.7 (00:00) 6.7 6.11 (10:40) 3.61 (12:20) 0.1 0 0.1 0 0
03-01-2020 11.7 (14:10) 2.4 (00:00) 7 6.39 (15:40) 2.78 (13:10) 0 0 0 0 0
02-01-2020 15.5 (16:30) 0.8 (00:00) 8.2 4.72 (14:30) 2.5 (14:40) 0.2 0.1 0.1 0 0
01-01-2020 17.6 (15:20) 0.8 (00:00) 9.2 3.06 (14:20) 1.67 (15:40) 0 0 0 0 0
31-12-2019 17 (15:40) 0.9 (00:00) 8.9 3.33 (13:20) 2.22 (13:10) 0.1 0 0.1 0 0
30-12-2019 16.8 (14:50) 1 (00:00) 8.9 3.61 (11:50) 2.22 (15:40) 0 0 0 0 0
29-12-2019 20 (15:30) 3.8 (00:00) 11.9 5 (11:10) 3.61 (07:10) 0 0 0 0 0
28-12-2019 21.9 (15:30) 4.9 (00:00) 13.4 5 (12:10) 3.33 (12:20) 0 0 0 0 0
27-12-2019 21.7 (14:50) 7.4 (00:00) 14.6 5 (05:00) 2.78 (04:40) 0 0 0 0 0
26-12-2019 20.4 (14:40) 6.8 (00:00) 13.6 6.11 (16:10) 3.61 (16:10) 0 0 0 0 0
25-12-2019 22.4 (14:10) 4.5 (00:00) 13.4 4.72 (15:00) 2.5 (06:40) 0 0 0 0 0

Gráficas

Temp. máximas Temp. mínimas Temp. medias Precipitaciones Rachas de viento máximas Velocidades máximas media en intervalos de 10 minutos

Datos horarios

Fecha y hora oficial Temperatura (ºC) Velocidad del viento (km/h) Dirección del viento Racha (km/h) Dirección de racha Precipitación (mm) Presión (hPa) Tendencia (hPa) Humedad (%)
2020-01-23 23:00:00 7.7 8 Sudeste 16 Sudeste 2.9 953 0.8 96
2020-01-23 22:00:00 7.7 8 Sudeste 22 Sur 3.2 953 1.2 96
2020-01-23 21:00:00 7.7 7 Sudeste 20 Sur 1.5 952.5 1.2 97
2020-01-23 20:00:00 7.6 6 Sur 17 Sudoeste 1.1 952.2 1 96
2020-01-23 19:00:00 7.9 4 Sudoeste 14 Sudeste 2.4 951.8 0.9 95
2020-01-23 18:00:00 7.5 5 Este 12 Este 0.7 951.3 0.8 97
2020-01-23 17:00:00 7.1 4 Este 9 Este 0.9 951.2 0 96
2020-01-23 16:00:00 7.1 0 Calma 21 Noroeste 4.5 950.9 -0.8 96
2020-01-23 15:00:00 8.3 8 Sudeste 22 Este 1.5 950.5 -1.5 93
2020-01-23 14:00:00 7.9 9 Sudeste 21 Este 0.4 951.2 -0.7 94
2020-01-23 13:00:00 7.4 10 Sudeste 26 Sudeste 2.3 951.7 0.3 95
2020-01-23 12:00:00 7.2 8 Sudeste 21 Este 2.1 952 1.2 97
2020-01-23 11:00:00 6.9 11 Sudeste 23 Sudeste 3.7 951.9 1.3 96
2020-01-23 10:00:00 7 6 Sudeste 17 Este 2 951.4 1.3 96
2020-01-23 09:00:00 7 9 Este 21 Sudeste 1.1 950.8 0.6 96
2020-01-23 08:00:00 7 7 Sudeste 23 Sudeste 1.1 950.6 0.3 95
2020-01-23 07:00:00 6.8 7 Sudeste 17 Sudeste 0.5 950.1 -0.5 96
2020-01-23 06:00:00 6.8 5 Sudeste 16 Sudeste 0.2 950.2 -0.4 95
2020-01-23 05:00:00 6.9 8 Sudeste 18 Sudeste 0.5 950.3 -0.5 94
2020-01-23 04:00:00 7 9 Sudeste 19 Sudeste 1.2 950.6 -0.5 95
2020-01-23 03:00:00 7.1 8 Sudeste 17 Sudeste 1.7 950.6 -0.5 96
2020-01-23 02:00:00 6.9 6 Sudeste 21 Sudeste 0.7 950.8 -0.2 96
2020-01-23 01:00:00 6.8 10 Sudeste 24 Sudeste 0.8 951.1 0.3 96
2020-01-23 00:00:00 6.6 7 Sudeste 15 Este 1 951.1 0.4 96
2020-01-22 23:00:00 6.6 5 Este 12 Este 0.6 951 0.6 95
2020-01-22 22:00:00 6.5 5 Sudeste 13 Sudeste 0.1 950.8 1.1 93
2020-01-22 21:00:00 6.6 6 Sur 22 Sudeste 1 950.7 1.2 94
2020-01-22 20:00:00 7.8 11 Sudeste 24 Sudeste 0 950.4 1.1 85
2020-01-22 19:00:00 8 9 Sudeste 18 Este 0 949.7 0.4 85
2020-01-22 18:00:00 8.4 10 Este 19 Este 0 949.5 -0.1 84
2020-01-22 17:00:00 8.7 7 Este 16 Sudeste 0 949.3 -0.7 83
2020-01-22 16:00:00 8.6 8 Sudeste 18 Sudeste 0 949.3 -1.5 82
2020-01-22 15:00:00 9.1 7 Sudeste 21 Este 0 949.6 -1.3 77
2020-01-22 14:00:00 8.2 8 Sudeste 18 Sudeste 0 950 -0.7 87
2020-01-22 13:00:00 7.3 7 Sudeste 19 Este 0.1 950.8 0.5 93
2020-01-22 12:00:00 6.4 11 Este 22 Sudeste 1.9 950.9 1 95
2020-01-22 11:00:00 5.8 11 Sudeste 22 Sudeste 1.3 950.7 1.5 95
2020-01-22 10:00:00 5.1 10 Sudeste 26 Sudeste 0.8 950.3 1.5 93
2020-01-22 09:00:00 5 7 Sudeste 26 Sudeste 1.8 949.9 1.3 95
2020-01-22 08:00:00 5.3 11 Sudeste 21 Sudeste 2.4 949.2 0.3 95
2020-01-22 07:00:00 5 5 Este 10 Este 2.2 948.8 -0.2 95
2020-01-22 06:00:00 5.3 5 Este 13 Este 2 948.6 -0.3 94
2020-01-22 05:00:00 5.5 4 Este 12 Este 1.8 948.9 -0.3 96
2020-01-22 04:00:00 5.6 6 Este 13 Este 0.6 949 0 94
2020-01-22 03:00:00 6 8 Este 16 Este 0.1 948.9 -0.3 92
2020-01-22 02:00:00 6.1 7 Este 14 Nordeste 0 949.2 0.2 86
2020-01-22 01:00:00 5.5 6 Este 15 Este 0 949 0.4 86
2020-01-22 00:00:00 5.3 8 Este 14 Este 0 949.2 0.7 86
2020-01-21 23:00:00 5.6 4 Este 17 Este 0 949 0.4 86
2020-01-21 22:00:00 6.2 5 Este 19 Este 0 948.6 0.5 82
2020-01-21 21:00:00 6.5 12 Este 22 Nordeste 0 948.5 0.9 81
2020-01-21 20:00:00 6.6 13 Este 30 Nordeste 0 948.6 1 79
2020-01-21 19:00:00 6.6 16 Nordeste 33 Nordeste 0 948.1 1 77
2020-01-21 18:00:00 7.2 14 Este 32 Nordeste 0 947.6 -0.6 72
2020-01-21 17:00:00 7.9 13 Nordeste 35 Nordeste 0 947.6 -1.1 70
2020-01-21 16:00:00 8.3 10 Nordeste 33 Este 0 947.1 -1.7 68
2020-01-21 15:00:00 7.4 13 Nordeste 26 Nordeste 0 948.2 -1 69
2020-01-21 14:00:00 6.9 14 Este 31 Este 0 948.7 -1 69
2020-01-21 13:00:00 7.9 14 Nordeste 40 Nordeste 0 948.8 -0.6 65
2020-01-21 12:00:00 7.7 24 Nordeste 47 Nordeste 0 949.2 -0.3 62
2020-01-21 11:00:00 5.8 19 Nordeste 41 Nordeste 0 949.7 0.1 66
2020-01-21 10:00:00 5.1 21 Nordeste 40 Nordeste 0 949.4 0 69
2020-01-21 09:00:00 5 23 Nordeste 41 Nordeste 0 949.5 0.1 72
2020-01-21 08:00:00 4.6 16 Nordeste 35 Nordeste 0 949.6 0 72
2020-01-21 07:00:00 5 17 Nordeste 34 Este 0 949.4 -0.3 69
2020-01-21 06:00:00 5.2 17 Nordeste 44 Nordeste 0 949.4 -0.8 66
2020-01-21 05:00:00 5.6 24 Nordeste 46 Este 0 949.6 -1.1 70
2020-01-21 04:00:00 5.7 21 Este 37 Este 0 949.7 -1.7 71
2020-01-21 03:00:00 5.3 19 Nordeste 37 Nordeste 0 950.2 -1.7 73
2020-01-21 02:00:00 4.9 20 Este 42 Este 0 950.7 -0.9 75
2020-01-21 01:00:00 5.5 17 Nordeste 40 Este 0 951.4 -0.5 74
2020-01-21 00:00:00 5.9 19 Este 35 Nordeste 0 951.9 0.7 72
2020-01-20 23:00:00 5.8 16 Este 33 Este 0 951.6 0.5 73
2020-01-20 22:00:00 5.7 17 Este 37 Nordeste 0 951.9 1.2 73
2020-01-20 21:00:00 5.8 13 Nordeste 36 Nordeste 0 951.2 1.2 73
2020-01-20 20:00:00 5.8 15 Este 41 Nordeste 0 951.1 1.4 70
2020-01-20 19:00:00 6 21 Este 44 Este 0 950.7 1.1 67
2020-01-20 18:00:00 6.9 21 Este 38 Nordeste 0 950 0.2 60
2020-01-20 17:00:00 7.8 22 Este 42 Este 0 949.7 -1.2 55
2020-01-20 16:00:00 8 25 Este 43 Nordeste 0 949.6 -2.1 55
2020-01-20 15:00:00 7.4 21 Nordeste 49 Nordeste 0 949.8 -2.2 56
2020-01-20 14:00:00 6 23 Nordeste 47 Nordeste 0 950.9 -1.4 61
2020-01-20 13:00:00 5.3 26 Nordeste 44 Nordeste 0 951.7 -0.8 57
2020-01-20 12:00:00 5.9 24 Nordeste 47 Nordeste 0 952 -0.5 52
2020-01-20 11:00:00 5.3 19 Nordeste 44 Nordeste 0 952.3 -0.1 52
2020-01-20 10:00:00 4.7 17 Nordeste 37 Este 0 952.5 -0.1 54
2020-01-20 09:00:00 3.6 15 Este 39 Este 0 952.5 -0.5 56
2020-01-20 08:00:00 3.6 16 Este 33 Nordeste 0 952.4 -0.6 54
2020-01-20 07:00:00 3.7 9 Nordeste 29 Nordeste 0 952.6 -0.8 55
2020-01-20 06:00:00 4 16 Nordeste 36 Nordeste 0 953 -1 53
2020-01-20 05:00:00 4.1 17 Nordeste 41 Este 0 953 -1.4 52
2020-01-20 04:00:00 4.5 23 Nordeste 49 Este 0 953.4 -1.3 54
2020-01-20 03:00:00 5 28 Nordeste 46 Nordeste 0 954 -0.9 55
2020-01-20 02:00:00 5.1 21 Nordeste 42 Este 0 954.4 -0.2 56
2020-01-20 01:00:00 5.8 22 Nordeste 51 Nordeste 0 954.7 -0.1 54
2020-01-20 00:00:00 5.8 15 Nordeste 41 Nordeste 0 954.9 0.6 58
2020-01-19 23:00:00 6 16 Nordeste 41 Este 0 954.6 0.6 58
2020-01-19 22:00:00 6.7 21 Este 45 Este 0 954.8 1.3 53
2020-01-19 21:00:00 6.8 19 Este 59 Este 0 954.3 0.6 60
2020-01-19 20:00:00 7.9 25 Nordeste 49 Este 0 954 0.1 48
2020-01-19 19:00:00 8.4 13 Nordeste 42 Sudeste 0 953.5 -0.4 54
2020-01-19 18:00:00 9.2 12 Norte 36 Nordeste 0 953.7 -0.5 55
2020-01-19 17:00:00 9.9 14 Nordeste 45 Nordeste 0 953.9 -0.6 57
2020-01-19 16:00:00 11.6 15 Nordeste 37 Nordeste 0 953.9 -1.6 55
2020-01-19 15:00:00 12.4 11 Norte 33 Noroeste 0 954.2 -2 59
2020-01-19 14:00:00 12.3 13 Norte 32 Norte 0 954.5 -1.8 62
2020-01-19 13:00:00 10.3 12 Noroeste 31 Noroeste 0 955.5 -0.4 71
2020-01-19 12:00:00 9.4 15 Norte 29 Noroeste 0 956.2 0.5 78
2020-01-19 11:00:00 8.6 10 Norte 31 Nordeste 0 956.3 0.9 79
2020-01-19 10:00:00 8 12 Nordeste 32 Nordeste 0 955.9 0.4 83
2020-01-19 09:00:00 7.4 9 Nordeste 31 Noroeste 0 955.7 0.1 88
2020-01-19 08:00:00 7.3 11 Noroeste 26 Noroeste 0 955.4 -0.9 91
2020-01-19 07:00:00 6.7 11 Noroeste 23 Noroeste 0 955.5 -1.3 93
2020-01-19 06:00:00 6.3 10 Noroeste 22 Noroeste 0 955.6 -1.8 91
2020-01-19 05:00:00 6.4 12 Noroeste 26 Noroeste 0 956.3 -2 90
2020-01-19 04:00:00 7.1 10 Noroeste 33 Noroeste 0 956.8 -1.4 85
2020-01-19 03:00:00 8.2 17 Noroeste 34 Noroeste 0 957.4 -2 86
2020-01-19 02:00:00 8.2 6 Noroeste 21 Oeste 0 958.3 -1.1 92
2020-01-19 01:00:00 8.8 11 Noroeste 33 Noroeste 0 958.2 -1.3 86
2020-01-19 00:00:00 9.7 18 Noroeste 34 Noroeste 0.1 959.4 -0.1 88
2020-01-18 23:00:00 9.4 8 Oeste 21 Oeste 0 959.4 -1 99
2020-01-18 22:00:00 10.6 10 Oeste 19 Oeste 0 959.5 -1.3 99
2020-01-18 21:00:00 10.8 8 Oeste 17 Noroeste 0 959.5 -1.3 99
2020-01-18 20:00:00 10.4 5 Oeste 18 Oeste 0 960.4 -1 99
2020-01-18 19:00:00 11.6 14 Oeste 22 Oeste 0 960.8 -1 99
2020-01-18 18:00:00 11.5 6 Noroeste 13 Noroeste 0.2 960.8 -1.3 99
2020-01-18 17:00:00 11.1 5 Noroeste 12 Noroeste 0.1 961.4 -1.6 98
2020-01-18 16:00:00 11.6 4 Noroeste 14 Oeste 0.6 961.8 -2.1 98
2020-01-18 15:00:00 10.2 3 Oeste 20 Sudoeste 0.2 962.1 -3 98
2020-01-18 14:00:00 9.8 6 Sudoeste 18 Sudoeste 0.5 963 -2.4 98
2020-01-18 13:00:00 9.6 3 Sur 19 Sur 0.3 963.9 -0.9 97
2020-01-18 12:00:00 9.6 4 Sur 15 Sur 0.2 965.1 -0.5 96
2020-01-18 11:00:00 9.4 7 Sur 21 Sur 0.2 965.4 0.4 95
2020-01-18 10:00:00 9.6 9 Sur 24 Sur 2.4 964.8 0 94
2020-01-18 09:00:00 8.7 0 Calma 6 Sudeste 1.1 965.6 1 96
2020-01-18 08:00:00 8.8 0 Calma 8 Sudeste 0.4 965 0.1 94
2020-01-18 07:00:00 8.8 3 Oeste 8 Oeste 0.2 964.8 -0.5 92
2020-01-18 06:00:00 10 4 Sur 14 Sudeste 0 964.6 -1.2 85
2020-01-18 05:00:00 8.2 2 Sudoeste 9 Sur 0 964.9 -1.4 92
2020-01-18 04:00:00 7 4 Este 5 Este 0 965.3 -1.4 96
2020-01-18 03:00:00 6.9 3 Sudeste 8 Este 0 965.8 -1.3 95
2020-01-18 02:00:00 6.6 5 Este 8 Este 0 966.3 -0.7 97
2020-01-18 01:00:00 6.1 4 Sudeste 8 Este 0 966.7 -0.7 97
2020-01-18 00:00:00 5.5 5 Este 9 Este 0 967.1 0 95
2020-01-17 23:00:00 6.7 3 Sudeste 5 Sudeste 0 967 0 96
2020-01-17 22:00:00 7.1 3 Sudeste 5 Sudeste 0 967.4 1 95
2020-01-17 21:00:00 7.6 4 Sudeste 7 Este 0 967.1 1 95
2020-01-17 20:00:00 8.3 3 Este 6 Este 0 967 1 90
2020-01-17 19:00:00 11.9 0 Calma 6 Noroeste 0 966.4 0.9 79
2020-01-17 18:00:00 14.3 4 Noroeste 14 Norte 0 966.1 0.3 58
2020-01-17 17:00:00 15.5 7 Nordeste 17 Este 0 966 -0.4 52
2020-01-17 16:00:00 16.8 5 Noroeste 21 Norte 0 965.5 -1.5 49
2020-01-17 15:00:00 16.5 5 Noroeste 17 Noroeste 0 965.8 -2 51
2020-01-17 14:00:00 16.1 5 Noroeste 16 Noroeste 0 966.4 -1.1 52
2020-01-17 13:00:00 14.6 3 Sudoeste 13 Noroeste 0 967 -0.1 67
2020-01-17 12:00:00 13.4 4 Oeste 8 Sudeste 0 967.8 1.4 78
2020-01-17 11:00:00 10.5 3 Este 6 Nordeste 0 967.5 2 95
2020-01-17 10:00:00 9.2 2 Noroeste 5 Oeste 0 967.1 2 99
2020-01-17 09:00:00 8.7 0 Calma 3 Este 0 966.4 2.3 99
2020-01-17 08:00:00 8.7 3 Este 10 Oeste 0 965.5 1.2 97
2020-01-17 07:00:00 10 7 Oeste 12 Sudoeste 0 965.1 0.7 98
2020-01-17 06:00:00 9.8 3 Oeste 12 Oeste 0.1 964.1 0 97
2020-01-17 05:00:00 9.8 4 Oeste 20 Oeste 0.1 964.3 0.3 95
2020-01-17 04:00:00 10.6 12 Oeste 22 Noroeste 0 964.4 0 94
2020-01-17 03:00:00 10.4 6 Noroeste 18 Sudoeste 0 964.1 -0.1 93
2020-01-17 02:00:00 10.2 4 Oeste 18 Sudoeste 0 964 0 90
2020-01-17 01:00:00 10.1 5 Oeste 19 Noroeste 0 964.4 0.8 92
2020-01-17 00:00:00 9.8 8 Noroeste 15 Norte 0 964.2 1 88
2020-01-16 23:00:00 9.3 4 Noroeste 16 Oeste 0 964 1 81
2020-01-16 22:00:00 7.8 2 Norte 9 Noroeste 0 963.6 1 73
2020-01-16 21:00:00 6.6 3 Noroeste 10 Oeste 0 963.2 1.2 81
2020-01-16 20:00:00 6.5 3 Este 7 Sur 0 963 1.2 79
2020-01-16 19:00:00 9.8 4 Sudeste 9 Sur 0 962.6 0.8 64
2020-01-16 18:00:00 12.6 5 Sur 19 Sudoeste 0 962 0 49
2020-01-16 17:00:00 14.9 8 Sudoeste 23 Sudoeste 0 961.8 -0.6 41
2020-01-16 16:00:00 15.2 9 Sudoeste 22 Sudoeste 0 961.8 -1.2 39
2020-01-16 15:00:00 15.7 9 Sudoeste 23 Sudoeste 0 962 -1.8 37
2020-01-16 14:00:00 15.2 7 Sudoeste 20 Sudoeste 0 962.4 -0.8 44
2020-01-16 13:00:00 15.5 4 Sur 20 Sur 0 963 -0.1 46
2020-01-16 12:00:00 13.5 7 Sur 18 Sudeste 0 963.8 1.2 55
2020-01-16 11:00:00 11.5 6 Sudeste 13 Sudeste 0 963.2 0.9 71
2020-01-16 10:00:00 7.1 0 Calma 10 Este 0 963.1 1 99
2020-01-16 09:00:00 6.6 4 Este 8 Este 0 962.6 0.7 99
2020-01-16 08:00:00 7 4 Este 8 Este 0 962.3 0.2 99
2020-01-16 07:00:00 6.2 3 Este 8 Este 0 962.1 -0.3 99
2020-01-16 06:00:00 7.6 0 Calma 6 Este 0 961.9 -0.3 98
2020-01-16 05:00:00 7.8 0 Calma 6 Sur 0 962.1 -0.3 97
2020-01-16 04:00:00 7.6 0 Calma 8 Sudeste 0 962.4 -0.3 97
2020-01-16 03:00:00 8.2 4 Sudeste 8 Sur 0 962.2 -0.5 93
2020-01-16 02:00:00 9.9 3 Sur 9 Sur 0 962.4 -0.1 93
2020-01-16 01:00:00 10 3 Sudeste 11 Sur 0 962.7 0.3 92
2020-01-16 00:00:00 10.3 3 Sudeste 10 Sur 0 962.7 0.4 90
2020-01-15 23:00:00 10.7 5 Sur 12 Sur 0 962.5 0.4 89
2020-01-15 22:00:00 11.1 5 Sudeste 16 Sur 0 962.4 0.5 87
2020-01-15 21:00:00 11.1 5 Sudeste 14 Sur 0 962.3 0.7 86
2020-01-15 20:00:00 10.5 5 Sudeste 12 Sudeste 0 962.1 0.8 88
2020-01-15 19:00:00 10.4 5 Sudeste 11 Sudeste 0 961.9 0.8 90
2020-01-15 18:00:00 10.9 6 Sudeste 14 Sur 0 961.6 0.8 89
2020-01-15 17:00:00 12.2 5 Sur 15 Sur 0 961.3 0 82
2020-01-15 16:00:00 11.9 3 Sur 14 Sudeste 0 961.1 -0.6 84
2020-01-15 15:00:00 11.3 3 Sur 17 Sur 0 960.8 -1 87
2020-01-15 14:00:00 10.6 5 Sudeste 16 Sur 0 961.3 0 86
2020-01-15 13:00:00 10.4 7 Sudeste 18 Sur 0 961.7 1.1 86
2020-01-15 12:00:00 9.5 6 Sudeste 18 Sudoeste 0 961.8 1.9 87
2020-01-15 11:00:00 8.6 5 Sudeste 14 Sur 0 961.3 1.3 83
2020-01-15 10:00:00 7.7 5 Sudeste 17 Sudeste 0 960.6 1.4 83
2020-01-15 09:00:00 6.6 6 Sudeste 13 Sur 0 959.9 1.3 86
2020-01-15 08:00:00 4.5 2 Este 7 Nordeste 0 960 1.1 96
2020-01-15 07:00:00 4.2 0 Calma 7 Sudeste 0 959.2 0.3 95
2020-01-15 06:00:00 3.4 2 Este 8 Sur 0 958.6 -0.6 97
2020-01-15 05:00:00 2.5 4 Este 8 Este 0 958.9 -0.3 96
2020-01-15 04:00:00 2.5 5 Este 7 Este 0 958.9 -0.6 95
2020-01-15 03:00:00 3.3 5 Este 8 Sur 0 959.2 -0.4 93
2020-01-15 02:00:00 6.5 5 Sudeste 12 Sur 0 959.2 -0.3 88
2020-01-15 01:00:00 4.3 2 Sur 6 Sur 0 959.5 0.1 92
2020-01-15 00:00:00 5.5 0 Calma 8 Sudeste 0 959.6 0.5 89
2020-01-14 23:00:00 6.6 0 Calma 12 Sur 0 959.5 0.3 85
2020-01-14 22:00:00 6.9 5 Sur 12 Sur 0 959.4 0.4 83
2020-01-14 21:00:00 7.4 3 Sur 7 Sur 0 959.1 0.7 75
2020-01-14 20:00:00 7.9 2 Sudoeste 8 Sur 0 959.2 1 74
2020-01-14 19:00:00 8.2 0 Calma 11 Sudoeste 0 959 1 75
2020-01-14 18:00:00 9.4 4 Sudoeste 11 Sudoeste 0 958.4 0.5 68
2020-01-14 17:00:00 10.3 4 Sudoeste 15 Sudoeste 0 958.2 0 65
2020-01-14 16:00:00 10.5 6 Sudoeste 19 Sudoeste 0 958 -1.3 66
2020-01-14 15:00:00 12.1 5 Sudoeste 15 Sudoeste 0 957.9 -1.8 61
2020-01-14 14:00:00 12.2 6 Sudeste 16 Sudoeste 0 958.2 -1.5 62
2020-01-14 13:00:00 12 5 Sudoeste 13 Sudoeste 0 959.3 0.1 61
2020-01-14 12:00:00 9.6 4 Sur 9 Sudeste 0 959.7 1 69
2020-01-14 11:00:00 7.1 0 Calma -- -- 0 959.7 1 97
2020-01-14 10:00:00 2.1 0 Calma 6 Este 0.1 959.2 0.8 99
2020-01-14 09:00:00 0.2 5 Este 8 Sudeste 0 958.7 0.6 99
2020-01-14 08:00:00 0.3 5 Este 9 Este 0 958.7 0.3 99
2020-01-14 07:00:00 0 4 Este 7 Sudeste 0 958.4 -0.3 99
2020-01-14 06:00:00 0.9 6 Este 8 Este 0 958.1 -0.7 99
2020-01-14 05:00:00 1.3 4 Sudeste 7 Este 0 958.4 -0.8 99
2020-01-14 04:00:00 0.2 5 Este 7 Este 0 958.7 -1.1 99
2020-01-14 03:00:00 0.5 4 Sudeste 7 Este 0 958.8 -1.1 98
2020-01-14 02:00:00 0.3 5 Este 7 Este 0 959.2 -0.7 97
2020-01-14 01:00:00 1 5 Este 7 Este 0 959.8 -0.1 97
2020-01-14 00:00:00 1.2 3 Sudeste 8 Este 0 959.9 -0.1 95
2020-01-13 23:00:00 1.3 6 Este 8 Este 0 959.9 -0.2 95
2020-01-13 22:00:00 2.4 3 Sudeste 7 Este 0 959.9 -0.1 95
2020-01-13 21:00:00 3.5 4 Este 7 Sudeste 0 960 0.2 91
2020-01-13 20:00:00 4.8 3 Este 8 Sur 0 960.1 0.3 87
2020-01-13 19:00:00 7.7 4 Sur 9 Sur 0 960 0.3 78
2020-01-13 18:00:00 10.7 4 Sur 13 Oeste 0 959.8 0.1 67
2020-01-13 17:00:00 12.3 7 Oeste 17 Oeste 0 959.8 -1 55
2020-01-13 16:00:00 13 8 Oeste 19 Oeste 0 959.7 -1.9 54
2020-01-13 15:00:00 12.8 6 Sudoeste 17 Sudoeste 0 959.7 -2.9 55
2020-01-13 14:00:00 12.3 6 Oeste 22 Oeste 0 960.8 -1.8 52
2020-01-13 13:00:00 12.1 8 Oeste 20 Oeste 0 961.6 -0.4 59
2020-01-13 12:00:00 10.8 6 Sudoeste 12 Oeste 0 962.6 0.7 60
2020-01-13 11:00:00 8.3 3 Sudeste 9 Este 0 962.6 0.8 77
2020-01-13 10:00:00 3.7 6 Este 10 Sudeste 0 962 0.6 93
2020-01-13 09:00:00 -0.1 4 Este 8 Este 0 961.9 0.4 98
2020-01-13 08:00:00 -0.5 4 Sudeste 5 Sudeste 0 961.8 0 97
2020-01-13 07:00:00 -0.5 4 Sudeste 7 Sudeste 0 961.4 -1 96
2020-01-13 06:00:00 -0.6 4 Sudeste 7 Sudeste 0 961.5 -1.1 95
2020-01-13 05:00:00 -0.1 5 Sudeste 7 Sudeste 0 961.8 -1.1 95
2020-01-13 04:00:00 0.6 4 Sudeste 8 Sudeste 0 962.4 -1.2 93
2020-01-13 03:00:00 0.3 5 Sudeste 7 Este 0 962.6 -1.8 92
2020-01-13 02:00:00 0.9 6 Sudeste 8 Sudeste 0 962.9 -1.5 93
2020-01-13 01:00:00 1.2 5 Sudeste 8 Este 0 963.6 -0.7 93
2020-01-13 00:00:00 1.7 5 Este 8 Este 0 964.4 0.3 91
2020-01-12 23:00:00 2 6 Este 8 Este 0 964.4 0.4 90
2020-01-12 22:00:00 2.2 5 Este 7 Este 0 964.3 0.7 88
2020-01-12 21:00:00 2.3 4 Sudeste 6 Sudeste 0 964.1 0.8 82
2020-01-12 20:00:00 3.2 4 Sudeste 8 Este 0 964 0.8 80
2020-01-12 19:00:00 6.2 4 Este 7 Nordeste 0 963.6 0.5 72
2020-01-12 18:00:00 12.7 6 Noroeste 13 Noroeste 0 963.3 -0.2 43
2020-01-12 17:00:00 14.6 5 Norte 11 Este 0 963.2 -1.2 38
2020-01-12 16:00:00 15.4 3 Sur 14 Oeste 0 963.1 -2.1 34
2020-01-12 15:00:00 15 4 Sudoeste 14 Noroeste 0 963.5 -2.8 38
2020-01-12 14:00:00 14.6 6 Oeste 13 Noroeste 0 964.4 -1.7 39
2020-01-12 13:00:00 13.6 4 Sudoeste 12 Noroeste 0 965.2 -0.6 41
2020-01-12 12:00:00 12 5 Oeste 8 Oeste 0 966.3 0.7 56
2020-01-12 11:00:00 9 3 Sudeste 7 Sudeste 0 966.1 0.6 72
2020-01-12 10:00:00 3.1 5 Sudeste 8 Este 0 965.8 0.6 94
2020-01-12 09:00:00 0 6 Este 8 Este 0 965.6 0.5 97
2020-01-12 08:00:00 -0.2 5 Sudeste 7 Sudeste 0 965.5 0.3 96
2020-01-12 07:00:00 0 5 Este 7 Sudeste 0 965.2 -0.4 95
2020-01-12 06:00:00 0.5 4 Sudeste 9 Este 0 965.1 -0.3 93
2020-01-12 05:00:00 0.6 6 Este 10 Este 0 965.2 -0.1 94
2020-01-12 04:00:00 0.7 4 Sudeste 8 Este 0 965.6 -0.1 93
2020-01-12 03:00:00 1.2 6 Este 8 Este 0 965.4 -0.3 92
2020-01-12 02:00:00 1.3 5 Este 7 Este 0 965.3 -0.2 93
2020-01-12 01:00:00 1.4 6 Este 9 Este 0 965.7 0.3 91
2020-01-12 00:00:00 1.5 4 Sudeste 8 Este 0 965.7 0.5 90
2020-01-11 23:00:00 2.4 6 Sudeste 8 Este 0 965.5 0.5 89
2020-01-11 22:00:00 2.6 5 Sudeste 9 Este 0 965.4 1 87
2020-01-11 21:00:00 3.2 4 Sudeste 9 Sudeste 0 965.2 1.5 85
2020-01-11 20:00:00 3.8 2 Este 7 Este 0 965 1.5 84
2020-01-11 19:00:00 6.5 3 Sudeste 7 Sur 0 964.4 1.1 75
2020-01-11 18:00:00 12.4 5 Sur 9 Sudoeste 0 963.7 0.4 51
2020-01-11 17:00:00 15.2 2 Sur 11 Sur 0 963.5 -0.5 42
2020-01-11 16:00:00 15.7 3 Sudeste 10 Este 0 963.3 -1.4 37
2020-01-11 15:00:00 15.1 4 Sudeste 11 Este 0 963.3 -1.9 38
2020-01-11 14:00:00 14.1 4 Nordeste 15 Este 0 964 -1.1 42
2020-01-11 13:00:00 12.7 6 Este 16 Este 0 964.7 0 49
2020-01-11 12:00:00 9.8 10 Este 22 Este 0 965.2 0.9 53
2020-01-11 11:00:00 7.9 12 Este 24 Este 0 965.1 1.2 61
2020-01-11 10:00:00 5.6 10 Este 19 Este 0 964.7 1.3 67
2020-01-11 09:00:00 3.4 5 Sudeste 15 Este 0 964.3 0.9 73
2020-01-11 08:00:00 3.9 7 Este 18 Este 0 963.9 0.5 71
2020-01-11 07:00:00 4.3 7 Sudeste 20 Nordeste 0 963.4 -0.1 68
2020-01-11 06:00:00 4.5 6 Este 18 Nordeste 0 963.4 -0.5 68
2020-01-11 05:00:00 4.6 8 Nordeste 17 Nordeste 0 963.4 -0.3 68
2020-01-11 04:00:00 4.6 7 Este 17 Nordeste 0 963.5 0 68
2020-01-11 03:00:00 3.7 6 Este 13 Nordeste 0 963.9 0.1 72
2020-01-11 02:00:00 2.2 2 Este 8 Nordeste 0 963.7 0.2 79
2020-01-11 01:00:00 2.7 0 Calma 8 Nordeste 0 963.5 0.2 75
2020-01-11 00:00:00 2.9 3 Este 5 Sudeste 0 963.8 0.8 77
2020-01-10 23:00:00 4.6 0 Calma 9 Este 0 963.5 1 68
2020-01-10 22:00:00 5.3 4 Sudeste 8 Este 0 963.3 1.5 68
2020-01-10 21:00:00 6.2 4 Nordeste 10 Este 0 963 2 74
2020-01-10 20:00:00 7.4 4 Nordeste 9 Este 0 962.5 1.7 73
2020-01-10 19:00:00 8.7 3 Este 19 Nordeste 0 961.8 1.2 60
2020-01-10 18:00:00 10.6 6 Nordeste 21 Nordeste 0 961 0.6 58
2020-01-10 17:00:00 12.3 7 Nordeste 20 Este 0 960.8 -0.4 59
2020-01-10 16:00:00 12.2 12 Nordeste 24 Nordeste 0 960.6 -1 61
2020-01-10 15:00:00 12.4 12 Este 23 Este 0 960.4 -1.9 62
2020-01-10 14:00:00 12.2 12 Este 22 Nordeste 0 961.2 -1 65
2020-01-10 13:00:00 10.5 6 Nordeste 24 Nordeste 0 961.6 -0.1 58
2020-01-10 12:00:00 8.6 12 Este 24 Nordeste 0 962.3 1.3 65
2020-01-10 11:00:00 7.4 7 Norte 24 Noroeste 0 962.2 1.3 72
2020-01-10 10:00:00 5.9 2 Norte 16 Noroeste 0 961.7 1.2 82
2020-01-10 09:00:00 3.7 5 Oeste 18 Norte 0 961 0.1 95
2020-01-10 08:00:00 5.1 10 Norte 27 Sudeste 0 960.9 0 94
2020-01-10 07:00:00 5.7 10 Norte 18 Norte 0 960.5 -0.7 95
2020-01-10 06:00:00 6.1 4 Noroeste 13 Norte 0 960.9 -0.6 91
2020-01-10 05:00:00 7.8 5 Noroeste 11 Noroeste 0 960.9 -0.7 89
2020-01-10 04:00:00 7.9 0 Calma -- -- 0 961.2 -0.8 97
2020-01-10 03:00:00 7.7 2 Oeste 6 Oeste 0 961.5 -0.7 98
2020-01-10 02:00:00 6.7 2 Sudoeste 8 Oeste 0 961.6 -0.7 97
2020-01-10 01:00:00 6.3 3 Sudoeste 9 Oeste 0 962 -0.5 96
2020-01-10 00:00:00 5.5 4 Noroeste 10 Oeste 0 962.2 0.1 94
2020-01-09 23:00:00 3.1 0 Calma 6 Noroeste 0 962.3 0.2 97
2020-01-09 22:00:00 3.2 3 Oeste 5 Sudoeste 0 962.5 0.7 95
2020-01-09 21:00:00 3.6 3 Este 4 Este 0 962.1 0.4 93
2020-01-09 20:00:00 4.8 3 Este 5 Este 0 962.1 0.9 90
2020-01-09 19:00:00 7.4 3 Este 9 Oeste 0 961.8 0.8 80
2020-01-09 18:00:00 11.4 7 Oeste 10 Oeste 0 961.7 0 65
2020-01-09 17:00:00 13.6 5 Sudoeste 12 Sudoeste 0 961.2 -0.8 63
2020-01-09 16:00:00 13.7 5 Sudoeste 12 Oeste 0 961 -1.6 65
2020-01-09 15:00:00 12.5 5 Oeste 12 Oeste 0 961.7 -1.6 70
2020-01-09 14:00:00 10 7 Oeste 18 Oeste 0 962 -1.8 80
2020-01-09 13:00:00 10 12 Oeste 19 Oeste 0 962.6 -0.3 84
2020-01-09 12:00:00 8.8 9 Oeste 24 Oeste 0 963.3 1 89
2020-01-09 11:00:00 8.3 15 Oeste 30 Oeste 0 963.8 1.8 90
2020-01-09 10:00:00 4.4 6 Oeste 14 Oeste 0 962.9 1 99
2020-01-09 09:00:00 0.1 2 Sudeste 6 Este 0 962.3 0.4 97
2020-01-09 08:00:00 0.1 4 Este 6 Este 0 962 -0.1 96
2020-01-09 07:00:00 0.2 3 Sudeste 6 Este 0 961.9 -0.4 96
2020-01-09 06:00:00 0.3 4 Este 6 Sudeste 0 961.9 -0.7 94
2020-01-09 05:00:00 0.9 4 Sudeste 8 Este 0 962.1 -0.5 94
2020-01-09 04:00:00 1.3 0 Calma 9 Este 0 962.3 -0.4 93
2020-01-09 03:00:00 1.9 4 Sudeste 7 Este 0 962.6 -0.5 91
2020-01-09 02:00:00 2.3 5 Este 9 Este 0 962.6 -0.4 89
2020-01-09 01:00:00 2.8 6 Este 8 Este 0 962.7 -0.1 84
2020-01-09 00:00:00 2.6 5 Sudeste 7 Este 0 963.1 0.6 85
2020-01-08 23:00:00 3.5 4 Sudeste 6 Este 0 963 0.7 86
2020-01-08 22:00:00 4.4 4 Este 8 Este 0 962.8 0.5 81
2020-01-08 21:00:00 4.7 6 Este 8 Este 0 962.5 0.4 82
2020-01-08 20:00:00 6 2 Este 6 Este 0 962.3 0.2 78
2020-01-08 19:00:00 7.9 3 Sudeste 8 Sudeste 0 962.3 0.3 71
2020-01-08 18:00:00 15 3 Sudoeste 10 Oeste 0 962.1 0 49
2020-01-08 17:00:00 18.5 6 Oeste 10 Oeste 0 962.1 -0.5 38
2020-01-08 16:00:00 19.7 5 Sudoeste 12 Oeste 0 962 -1.2 32
2020-01-08 15:00:00 19.6 5 Sudoeste 13 Oeste 0 962.1 -2 33
2020-01-08 14:00:00 20 2 Este 9 Sudeste 0 962.6 -2 28
2020-01-08 13:00:00 18 4 Noroeste 8 Oeste 0 963.2 -0.9 34
2020-01-08 12:00:00 15 0 Calma 6 Noroeste 0 964.1 0.4 48
2020-01-08 11:00:00 12 0 Calma 7 Este 0 964.6 1.1 61
2020-01-08 10:00:00 4.4 6 Este 8 Este 0 964.1 0.8 83
2020-01-08 09:00:00 1.5 4 Este 8 Este 0 963.7 0.3 85
2020-01-08 08:00:00 1.3 5 Este 9 Este 0 963.5 -0.3 88
2020-01-08 07:00:00 2 4 Este 8 Sudeste 0 963.3 -0.9 87
2020-01-08 06:00:00 2 4 Este 7 Este 0 963.4 -0.7 91
2020-01-08 05:00:00 2.3 5 Este 7 Este 0 963.8 -0.6 94
2020-01-08 04:00:00 2.6 6 Este 10 Este 0 964.2 -0.2 95
2020-01-08 03:00:00 2.5 6 Este 8 Este 0 964.1 -0.8 94
2020-01-08 02:00:00 2.9 4 Este 9 Este 0 964.4 -0.7 92
2020-01-08 01:00:00 2.7 8 Este 9 Este 0 964.4 -0.7 92
2020-01-08 00:00:00 2.9 5 Este 7 Este 0 964.9 0 93
2020-01-07 23:00:00 3.5 4 Sudeste 6 Este 0 965.1 0.2 89
2020-01-07 22:00:00 4.6 4 Sudeste 8 Sudeste 0 965.1 0.5 88
2020-01-07 21:00:00 6 6 Sudeste 8 Sudeste 0 964.9 0.6 86
2020-01-07 20:00:00 5.8 5 Este 8 Sudeste 0 964.9 0.6 79
2020-01-07 19:00:00 8.2 5 Sudeste 7 Sudeste 0 964.6 0.4 71
2020-01-07 18:00:00 14.5 2 Este 9 Nordeste 0 964.3 0 48
2020-01-07 17:00:00 17.9 4 Nordeste 13 Nordeste 0 964.3 -0.3 35
2020-01-07 16:00:00 18.6 5 Nordeste 13 Este 0 964.2 -1 32
2020-01-07 15:00:00 18.5 6 Nordeste 17 Nordeste 0 964.3 -1.9 35
2020-01-07 14:00:00 17.6 4 Norte 10 Norte 0 964.6 -1.4 44
2020-01-07 13:00:00 16.5 4 Este 14 Este 0 965.2 -0.4 44
2020-01-07 12:00:00 14 11 Este 17 Este 0 966.2 0.8 45
2020-01-07 11:00:00 11 4 Este 9 Este 0 966 0.8 62
2020-01-07 10:00:00 3.7 0 Calma -- -- 0 965.6 0.5 94
2020-01-07 09:00:00 1.1 0 Calma 11 Este 0 965.4 0.5 95
2020-01-07 08:00:00 1.3 6 Este 8 Este 0 965.2 0.4 96
2020-01-07 07:00:00 1.6 4 Sudeste 11 Este 0 965.1 0.4 92
2020-01-07 06:00:00 2.5 8 Este 14 Este 0.1 964.9 0.2 90
2020-01-07 05:00:00 3.1 6 Este 10 Este 0 964.8 0.1 92
2020-01-07 04:00:00 3.1 6 Sudeste 12 Este 0 964.7 -0.5 94
2020-01-07 03:00:00 3.9 5 Este 9 Sudeste 0 964.7 -0.4 89
2020-01-07 02:00:00 3.5 5 Sudeste 10 Sudeste 0 964.7 -0.4 94
2020-01-07 01:00:00 2.6 5 Este 8 Sudeste 0 965.2 0.6 94
2020-01-07 00:00:00 3.8 6 Este 10 Este 0 965.1 0.9 94
2020-01-06 23:00:00 3.2 3 Sudeste 7 Sudeste 0 965.1 1.2 96
2020-01-06 22:00:00 3.4 5 Este 6 Este 0 964.6 1.4 95
2020-01-06 21:00:00 4.2 5 Este 7 Este 0 964.2 1.3 93
2020-01-06 20:00:00 5.2 4 Sudeste 5 Sudeste 0 963.9 1.3 90
2020-01-06 19:00:00 7.8 2 Sudeste 5 Sudeste 0 963.2 1 83
2020-01-06 18:00:00 12.8 0 Calma 12 Oeste 0 962.9 0.8 65
2020-01-06 17:00:00 15.7 4 Sudoeste 10 Oeste 0 962.6 -0.4 55
2020-01-06 16:00:00 16.4 5 Sur 11 Sur 0 962.2 -1.7 53
2020-01-06 15:00:00 16.4 5 Sur 11 Sur 0 962.1 -2.4 51
2020-01-06 14:00:00 15.9 4 Sudoeste 9 Sudoeste 0 963 -1.7 53
2020-01-06 13:00:00 14.5 3 Sudeste 6 Sudeste 0 963.9 -0.1 60
2020-01-06 12:00:00 10.1 4 Oeste 8 Noroeste 0 964.5 1 82
2020-01-06 11:00:00 8.2 0 Calma 6 Oeste 0 964.7 1.7 91
2020-01-06 10:00:00 3.5 5 Este 7 Este 0 964 1.5 99